sensor_id;sensor_type;location;lat;lon;timestamp;pressure;altitude;pressure_sealevel;temperature;humidity
18697;BME280;22617;43.690;27.956;2023-04-02T00:01:03;97537.63;;;9.61;87.03
18697;BME280;22617;43.690;27.956;2023-04-02T00:06:32;97541.47;;;9.45;87.64
18697;BME280;22617;43.690;27.956;2023-04-02T00:11:43;97541.47;;;9.45;88.11
18697;BME280;22617;43.690;27.956;2023-04-02T00:16:47;97548.47;;;9.43;87.34
18697;BME280;22617;43.690;27.956;2023-04-02T00:21:53;97527.06;;;9.31;87.23
18697;BME280;22617;43.690;27.956;2023-04-02T00:26:58;97528.00;;;9.30;86.98
18697;BME280;22617;43.690;27.956;2023-04-02T00:32:03;97552.06;;;9.38;86.08
18697;BME280;22617;43.690;27.956;2023-04-02T00:37:15;97555.56;;;9.35;85.68
18697;BME280;22617;43.690;27.956;2023-04-02T00:42:25;97566.13;;;9.29;86.34
18697;BME280;22617;43.690;27.956;2023-04-02T00:47:32;97569.59;;;9.28;86.42
18697;BME280;22617;43.690;27.956;2023-04-02T00:52:40;97564.41;;;9.28;86.83
18697;BME280;22617;43.690;27.956;2023-04-02T00:57:44;97559.34;;;9.22;87.50
18697;BME280;22617;43.690;27.956;2023-04-02T01:03:26;97561.84;;;9.27;87.34
18697;BME280;22617;43.690;27.956;2023-04-02T01:08:43;97555.06;;;9.19;87.30
18697;BME280;22617;43.690;27.956;2023-04-02T01:13:54;97563.75;;;9.18;88.28
18697;BME280;22617;43.690;27.956;2023-04-02T01:19:06;97558.75;;;9.09;88.39
18697;BME280;22617;43.690;27.956;2023-04-02T01:24:18;97554.25;;;9.17;88.03
18697;BME280;22617;43.690;27.956;2023-04-02T01:29:26;97562.97;;;9.15;87.95
18697;BME280;22617;43.690;27.956;2023-04-02T01:34:32;97557.81;;;9.12;87.71
18697;BME280;22617;43.690;27.956;2023-04-02T01:39:58;97556.94;;;9.13;87.66
18697;BME280;22617;43.690;27.956;2023-04-02T01:45:08;97568.47;;;9.01;88.13
18697;BME280;22617;43.690;27.956;2023-04-02T01:50:23;97585.44;;;9.16;88.05
18697;BME280;22617;43.690;27.956;2023-04-02T01:55:36;97586.59;;;9.03;87.60
18697;BME280;22617;43.690;27.956;2023-04-02T02:00:46;97587.38;;;9.08;88.47
18697;BME280;22617;43.690;27.956;2023-04-02T02:05:52;97584.97;;;8.97;88.05
18697;BME280;22617;43.690;27.956;2023-04-02T02:10:58;97584.06;;;9.00;88.81
18697;BME280;22617;43.690;27.956;2023-04-02T02:16:03;97582.34;;;8.99;88.61
18697;BME280;22617;43.690;27.956;2023-04-02T02:21:09;97569.28;;;9.02;88.09
18697;BME280;22617;43.690;27.956;2023-04-02T02:26:13;97581.50;;;8.98;88.61
18697;BME280;22617;43.690;27.956;2023-04-02T02:31:22;97596.22;;;8.98;88.29
18697;BME280;22617;43.690;27.956;2023-04-02T02:36:34;97585.75;;;9.02;88.34
18697;BME280;22617;43.690;27.956;2023-04-02T02:41:44;97587.56;;;8.99;87.97
18697;BME280;22617;43.690;27.956;2023-04-02T02:46:53;97586.69;;;8.98;88.18
18697;BME280;22617;43.690;27.956;2023-04-02T02:52:05;97588.50;;;8.96;88.63
18697;BME280;22617;43.690;27.956;2023-04-02T02:57:24;97583.13;;;9.04;88.53
18697;BME280;22617;43.690;27.956;2023-04-02T03:02:34;97592.69;;;9.02;88.08
18697;BME280;22617;43.690;27.956;2023-04-02T03:07:42;97595.28;;;9.02;87.67
18697;BME280;22617;43.690;27.956;2023-04-02T03:12:49;97595.06;;;9.12;87.44
18697;BME280;22617;43.690;27.956;2023-04-02T03:17:59;97592.56;;;9.08;87.24
18697;BME280;22617;43.690;27.956;2023-04-02T03:23:14;97597.72;;;9.11;87.36
18697;BME280;22617;43.690;27.956;2023-04-02T03:28:26;97608.03;;;9.14;86.54
18697;BME280;22617;43.690;27.956;2023-04-02T03:33:34;97605.44;;;9.14;86.32
18697;BME280;22617;43.690;27.956;2023-04-02T03:38:43;97601.00;;;9.19;85.98
18697;BME280;22617;43.690;27.956;2023-04-02T03:43:52;97613.13;;;9.20;86.03
18697;BME280;22617;43.690;27.956;2023-04-02T03:49:02;97607.25;;;9.10;86.70
18697;BME280;22617;43.690;27.956;2023-04-02T03:54:13;97614.22;;;9.07;86.89
18697;BME280;22617;43.690;27.956;2023-04-02T03:59:21;97616.63;;;9.16;86.96
18697;BME280;22617;43.690;27.956;2023-04-02T04:04:32;97619.31;;;9.13;86.69
18697;BME280;22617;43.690;27.956;2023-04-02T04:09:38;97619.31;;;9.13;86.31
18697;BME280;22617;43.690;27.956;2023-04-02T04:14:48;97622.69;;;9.16;86.45
18697;BME280;22617;43.690;27.956;2023-04-02T04:20:01;97632.50;;;9.04;86.08
18697;BME280;22617;43.690;27.956;2023-04-02T04:25:19;97637.81;;;8.98;86.86
18697;BME280;22617;43.690;27.956;2023-04-02T04:30:31;97637.69;;;9.04;86.83
18697;BME280;22617;43.690;27.956;2023-04-02T04:35:43;97641.44;;;8.89;86.32
18697;BME280;22617;43.690;27.956;2023-04-02T04:40:53;97658.66;;;8.95;86.54
18697;BME280;22617;43.690;27.956;2023-04-02T04:46:04;97658.56;;;9.01;86.55
18697;BME280;22617;43.690;27.956;2023-04-02T04:51:16;97668.56;;;9.19;86.37
18697;BME280;22617;43.690;27.956;2023-04-02T04:56:24;97664.25;;;9.18;85.97
18697;BME280;22617;43.690;27.956;2023-04-02T05:01:41;97673.53;;;9.31;85.76
18697;BME280;22617;43.690;27.956;2023-04-02T05:06:52;97692.63;;;9.30;85.76
18697;BME280;22617;43.690;27.956;2023-04-02T05:12:06;97678.63;;;9.36;84.46
18697;BME280;22617;43.690;27.956;2023-04-02T05:17:16;97688.94;;;9.40;84.98
18697;BME280;22617;43.690;27.956;2023-04-02T05:22:28;97685.34;;;9.46;84.73
18697;BME280;22617;43.690;27.956;2023-04-02T05:27:40;97698.22;;;9.52;85.14
18697;BME280;22617;43.690;27.956;2023-04-02T05:32:52;97693.88;;;9.52;85.05
18697;BME280;22617;43.690;27.956;2023-04-02T05:38:04;97695.34;;;9.66;85.01
18697;BME280;22617;43.690;27.956;2023-04-02T05:43:10;97692.59;;;9.72;84.40
18697;BME280;22617;43.690;27.956;2023-04-02T05:48:21;97711.63;;;9.74;84.65
18697;BME280;22617;43.690;27.956;2023-04-02T05:53:32;97721.03;;;9.81;85.09
18697;BME280;22617;43.690;27.956;2023-04-02T05:58:41;97722.47;;;9.94;85.04
18697;BME280;22617;43.690;27.956;2023-04-02T06:04:07;97734.28;;;10.08;84.96
18697;BME280;22617;43.690;27.956;2023-04-02T06:09:20;97721.81;;;10.24;84.89
18697;BME280;22617;43.690;27.956;2023-04-02T06:14:26;97724.53;;;10.20;83.99
18697;BME280;22617;43.690;27.956;2023-04-02T06:19:32;97739.47;;;10.10;84.89
18697;BME280;22617;43.690;27.956;2023-04-02T06:24:40;97736.69;;;10.19;84.87
18697;BME280;22617;43.690;27.956;2023-04-02T06:29:44;97748.88;;;10.17;84.74
18697;BME280;22617;43.690;27.956;2023-04-02T06:34:53;97740.16;;;10.18;84.92
18697;BME280;22617;43.690;27.956;2023-04-02T06:39:59;97751.44;;;10.19;85.68
18697;BME280;22617;43.690;27.956;2023-04-02T06:45:05;97751.22;;;10.29;85.59
18697;BME280;22617;43.690;27.956;2023-04-02T06:50:40;97750.75;;;10.49;85.59
18697;BME280;22617;43.690;27.956;2023-04-02T06:55:49;97765.56;;;10.45;84.91
18697;BME280;22617;43.690;27.956;2023-04-02T07:00:59;97762.72;;;10.56;85.73
18697;BME280;22617;43.690;27.956;2023-04-02T07:06:16;97771.41;;;10.55;85.05
18697;BME280;22617;43.690;27.956;2023-04-02T07:11:23;97767.78;;;10.62;85.70
18697;BME280;22617;43.690;27.956;2023-04-02T07:16:31;97772.50;;;10.82;84.91
18697;BME280;22617;43.690;27.956;2023-04-02T07:21:37;97783.94;;;10.76;84.52
18697;BME280;22617;43.690;27.956;2023-04-02T07:26:43;97781.31;;;10.76;84.71
18697;BME280;22617;43.690;27.956;2023-04-02T07:31:48;97780.31;;;10.82;84.84
18697;BME280;22617;43.690;27.956;2023-04-02T07:36:53;97774.56;;;11.03;85.66
18697;BME280;22617;43.690;27.956;2023-04-02T07:42:00;97781.88;;;10.89;84.75
18697;BME280;22617;43.690;27.956;2023-04-02T07:47:04;97795.88;;;10.85;85.24
18697;BME280;22617;43.690;27.956;2023-04-02T07:52:08;97798.94;;;11.02;85.55
18697;BME280;22617;43.690;27.956;2023-04-02T07:57:13;97803.25;;;11.03;85.50
18697;BME280;22617;43.690;27.956;2023-04-02T08:02:18;97793.25;;;11.20;85.61
18697;BME280;22617;43.690;27.956;2023-04-02T08:07:22;97817.47;;;11.25;85.80
18697;BME280;22617;43.690;27.956;2023-04-02T08:12:27;97809.91;;;11.15;85.28
18697;BME280;22617;43.690;27.956;2023-04-02T08:17:30;97828.88;;;11.21;84.88
18697;BME280;22617;43.690;27.956;2023-04-02T08:22:34;97838.97;;;11.33;85.21
18697;BME280;22617;43.690;27.956;2023-04-02T08:27:39;97831.03;;;11.38;85.08
18697;BME280;22617;43.690;27.956;2023-04-02T08:32:43;97835.06;;;11.84;85.54
18697;BME280;22617;43.690;27.956;2023-04-02T08:37:46;97834.84;;;11.91;83.37
18697;BME280;22617;43.690;27.956;2023-04-02T08:43:08;97839.25;;;11.89;83.63
18697;BME280;22617;43.690;27.956;2023-04-02T08:48:15;97848.97;;;11.84;84.28
18697;BME280;22617;43.690;27.956;2023-04-02T08:53:21;97839.31;;;11.86;83.49
18697;BME280;22617;43.690;27.956;2023-04-02T08:58:36;97855.25;;;11.77;84.33
18697;BME280;22617;43.690;27.956;2023-04-02T09:03:44;97872.22;;;11.93;82.42
18697;BME280;22617;43.690;27.956;2023-04-02T09:08:51;97870.69;;;12.15;82.72
18697;BME280;22617;43.690;27.956;2023-04-02T09:13:57;97880.66;;;12.03;82.62
18697;BME280;22617;43.690;27.956;2023-04-02T09:19:13;97885.22;;;11.95;83.73
18697;BME280;22617;43.690;27.956;2023-04-02T09:24:18;97884.91;;;12.05;83.87
18697;BME280;22617;43.690;27.956;2023-04-02T09:29:38;97878.69;;;12.09;83.97
18697;BME280;22617;43.690;27.956;2023-04-02T09:34:42;97895.53;;;11.99;83.46
18697;BME280;22617;43.690;27.956;2023-04-02T09:39:45;97891.03;;;12.04;83.54
18697;BME280;22617;43.690;27.956;2023-04-02T09:44:50;97894.13;;;12.18;83.09
18697;BME280;22617;43.690;27.956;2023-04-02T09:49:54;97903.47;;;12.27;82.36
18697;BME280;22617;43.690;27.956;2023-04-02T09:55:18;97917.63;;;12.18;82.05
18697;BME280;22617;43.690;27.956;2023-04-02T10:00:25;97908.41;;;12.05;82.91
18697;BME280;22617;43.690;27.956;2023-04-02T10:05:43;97919.88;;;12.00;85.00
18697;BME280;22617;43.690;27.956;2023-04-02T10:10:49;97937.88;;;11.78;86.21
18697;BME280;22617;43.690;27.956;2023-04-02T10:16:00;97946.97;;;11.62;87.91
18697;BME280;22617;43.690;27.956;2023-04-02T10:21:07;97946.41;;;11.51;88.93
18697;BME280;22617;43.690;27.956;2023-04-02T10:26:24;97950.13;;;11.41;90.30
18697;BME280;22617;43.690;27.956;2023-04-02T10:31:43;97957.97;;;11.39;92.79
18697;BME280;22617;43.690;27.956;2023-04-02T10:37:06;97969.06;;;11.12;93.78
18697;BME280;22617;43.690;27.956;2023-04-02T10:42:21;97978.16;;;11.31;93.99
18697;BME280;22617;43.690;27.956;2023-04-02T10:47:38;97984.03;;;11.41;94.05
18697;BME280;22617;43.690;27.956;2023-04-02T10:52:55;97989.81;;;11.52;92.24
18697;BME280;22617;43.690;27.956;2023-04-02T11:04:40;97992.72;;;11.78;86.00
18697;BME280;22617;43.690;27.956;2023-04-02T11:09:47;97998.03;;;12.07;85.56
18697;BME280;22617;43.690;27.956;2023-04-02T11:14:55;98000.41;;;12.47;83.77
18697;BME280;22617;43.690;27.956;2023-04-02T11:32:12;98023.06;;;12.16;82.78
18697;BME280;22617;43.690;27.956;2023-04-02T11:37:32;98027.50;;;12.12;83.66
18697;BME280;22617;43.690;27.956;2023-04-02T11:42:40;98024.38;;;12.32;83.89
18697;BME280;22617;43.690;27.956;2023-04-02T11:53:31;98018.72;;;12.78;82.45
18697;BME280;22617;43.690;27.956;2023-04-02T11:58:51;98025.94;;;12.38;81.64
18697;BME280;22617;43.690;27.956;2023-04-02T12:09:43;98033.78;;;12.38;83.52
18697;BME280;22617;43.690;27.956;2023-04-02T12:14:51;98040.53;;;12.46;82.50
18697;BME280;22617;43.690;27.956;2023-04-02T12:20:18;98038.69;;;12.81;82.18
18697;BME280;22617;43.690;27.956;2023-04-02T12:25:30;98050.66;;;12.89;80.56
18697;BME280;22617;43.690;27.956;2023-04-02T12:30:37;98047.03;;;12.95;80.55
18697;BME280;22617;43.690;27.956;2023-04-02T12:35:44;98050.28;;;12.72;80.39
18697;BME280;22617;43.690;27.956;2023-04-02T12:40:55;98040.66;;;12.73;81.12
18697;BME280;22617;43.690;27.956;2023-04-02T12:46:07;98050.66;;;12.58;81.02
18697;BME280;22617;43.690;27.956;2023-04-02T12:51:13;98047.38;;;12.81;79.77
18697;BME280;22617;43.690;27.956;2023-04-02T12:56:23;98043.53;;;12.94;78.98
18697;BME280;22617;43.690;27.956;2023-04-02T13:01:30;98043.31;;;13.02;78.79
18697;BME280;22617;43.690;27.956;2023-04-02T13:06:38;98045.16;;;12.98;78.76
18697;BME280;22617;43.690;27.956;2023-04-02T13:11:48;98037.97;;;13.05;79.89
18697;BME280;22617;43.690;27.956;2023-04-02T13:16:54;98033.16;;;13.22;78.32
18697;BME280;22617;43.690;27.956;2023-04-02T13:22:26;98037.06;;;13.37;79.57
18697;BME280;22617;43.690;27.956;2023-04-02T13:27:30;98044.31;;;13.57;79.28
18697;BME280;22617;43.690;27.956;2023-04-02T13:32:37;98030.06;;;13.91;77.95
18697;BME280;22617;43.690;27.956;2023-04-02T13:37:44;98023.63;;;14.53;75.66
18697;BME280;22617;43.690;27.956;2023-04-02T13:42:51;98005.56;;;14.68;73.60
18697;BME280;22617;43.690;27.956;2023-04-02T13:47:57;98015.13;;;15.39;71.50
18697;BME280;22617;43.690;27.956;2023-04-02T13:53:05;98013.34;;;15.63;70.85
18697;BME280;22617;43.690;27.956;2023-04-02T13:58:15;98013.97;;;15.46;68.75
18697;BME280;22617;43.690;27.956;2023-04-02T14:03:22;98021.06;;;15.44;69.90
18697;BME280;22617;43.690;27.956;2023-04-02T14:08:33;98015.44;;;15.97;68.69
18697;BME280;22617;43.690;27.956;2023-04-02T14:13:58;98010.72;;;16.05;69.33
18697;BME280;22617;43.690;27.956;2023-04-02T14:19:20;98012.69;;;16.00;68.30
18697;BME280;22617;43.690;27.956;2023-04-02T14:24:39;98010.56;;;15.21;69.05
18697;BME280;22617;43.690;27.956;2023-04-02T14:29:55;98012.00;;;14.83;70.68
18697;BME280;22617;43.690;27.956;2023-04-02T14:35:11;98010.66;;;15.19;70.63
18697;BME280;22617;43.690;27.956;2023-04-02T14:40:23;98015.72;;;15.24;68.31
18697;BME280;22617;43.690;27.956;2023-04-02T14:45:43;98013.97;;;14.53;69.73
18697;BME280;22617;43.690;27.956;2023-04-02T14:50:55;98023.91;;;13.92;71.37
18697;BME280;22617;43.690;27.956;2023-04-02T14:56:06;98023.88;;;13.94;73.55
18697;BME280;22617;43.690;27.956;2023-04-02T15:01:19;98029.28;;;13.89;73.74
18697;BME280;22617;43.690;27.956;2023-04-02T15:07:03;98025.38;;;14.01;72.83
18697;BME280;22617;43.690;27.956;2023-04-02T15:12:13;98023.63;;;14.02;73.05
18697;BME280;22617;43.690;27.956;2023-04-02T15:17:29;98026.22;;;14.02;72.87
18697;BME280;22617;43.690;27.956;2023-04-02T15:22:38;98034.72;;;14.10;73.65
18697;BME280;22617;43.690;27.956;2023-04-02T15:28:07;98041.81;;;14.31;74.37
18697;BME280;22617;43.690;27.956;2023-04-02T15:39:06;98039.81;;;14.39;71.27
18697;BME280;22617;43.690;27.956;2023-04-02T15:44:18;98046.06;;;14.35;72.24
18697;BME280;22617;43.690;27.956;2023-04-02T15:49:39;98041.78;;;14.32;72.21
18697;BME280;22617;43.690;27.956;2023-04-02T15:55:08;98055.75;;;14.07;72.84
18697;BME280;22617;43.690;27.956;2023-04-02T16:00:24;98051.25;;;13.85;73.85
18697;BME280;22617;43.690;27.956;2023-04-02T16:05:37;98061.56;;;13.62;74.70
18697;BME280;22617;43.690;27.956;2023-04-02T16:10:47;98066.56;;;13.42;75.03
18697;BME280;22617;43.690;27.956;2023-04-02T16:15:56;98071.16;;;13.34;75.55
18697;BME280;22617;43.690;27.956;2023-04-02T16:21:05;98073.47;;;13.15;76.01
18697;BME280;22617;43.690;27.956;2023-04-02T16:26:26;98067.97;;;12.93;77.09
18697;BME280;22617;43.690;27.956;2023-04-02T16:31:40;98079.03;;;12.72;78.03
18697;BME280;22617;43.690;27.956;2023-04-02T16:36:57;98078.53;;;12.58;78.36
18697;BME280;22617;43.690;27.956;2023-04-02T16:42:16;98084.13;;;12.44;78.87
18697;BME280;22617;43.690;27.956;2023-04-02T16:47:49;98082.03;;;12.24;79.50
18697;BME280;22617;43.690;27.956;2023-04-02T16:53:48;98094.91;;;11.98;80.13
18697;BME280;22617;43.690;27.956;2023-04-02T16:59:56;98084.09;;;11.76;80.29
18697;BME280;22617;43.690;27.956;2023-04-02T17:11:40;98103.31;;;11.34;81.49
18697;BME280;22617;43.690;27.956;2023-04-02T17:17:03;98100.09;;;11.21;82.15
18697;BME280;22617;43.690;27.956;2023-04-02T17:22:11;98107.34;;;11.07;81.99
18697;BME280;22617;43.690;27.956;2023-04-02T17:27:24;98112.91;;;10.89;83.12
18697;BME280;22617;43.690;27.956;2023-04-02T17:32:31;98120.91;;;10.81;82.91
18697;BME280;22617;43.690;27.956;2023-04-02T17:37:42;98126.03;;;10.86;82.95
18697;BME280;22617;43.690;27.956;2023-04-02T17:42:50;98123.69;;;10.72;82.48
18697;BME280;22617;43.690;27.956;2023-04-02T17:48:01;98129.09;;;10.60;82.30
18697;BME280;22617;43.690;27.956;2023-04-02T17:53:14;98130.91;;;10.57;82.63
18697;BME280;22617;43.690;27.956;2023-04-02T17:58:51;98137.94;;;10.53;82.71
18697;BME280;22617;43.690;27.956;2023-04-02T18:04:07;98145.25;;;10.31;81.91
18697;BME280;22617;43.690;27.956;2023-04-02T18:09:32;98155.13;;;10.10;82.73
18697;BME280;22617;43.690;27.956;2023-04-02T18:14:57;98170.16;;;9.91;83.73
18697;BME280;22617;43.690;27.956;2023-04-02T18:20:17;98174.53;;;9.89;84.01
18697;BME280;22617;43.690;27.956;2023-04-02T18:25:38;98169.44;;;9.80;84.42
18697;BME280;22617;43.690;27.956;2023-04-02T18:30:51;98171.13;;;9.84;84.27
18697;BME280;22617;43.690;27.956;2023-04-02T18:36:03;98167.91;;;9.67;83.63
18697;BME280;22617;43.690;27.956;2023-04-02T18:41:22;98166.31;;;9.58;84.02
18697;BME280;22617;43.690;27.956;2023-04-02T18:46:34;98173.25;;;9.59;84.28
18697;BME280;22617;43.690;27.956;2023-04-02T18:51:43;98176.72;;;9.58;84.21
18697;BME280;22617;43.690;27.956;2023-04-02T18:56:47;98193.44;;;9.36;83.81
18697;BME280;22617;43.690;27.956;2023-04-02T19:01:52;98196.91;;;9.36;84.75
18697;BME280;22617;43.690;27.956;2023-04-02T19:07:03;98195.19;;;9.35;85.38
18697;BME280;22617;43.690;27.956;2023-04-02T19:12:13;98189.91;;;9.41;85.78
18697;BME280;22617;43.690;27.956;2023-04-02T19:17:23;98187.31;;;9.43;85.67
18697;BME280;22617;43.690;27.956;2023-04-02T19:22:39;98198.53;;;9.46;85.24
18697;BME280;22617;43.690;27.956;2023-04-02T19:27:54;98195.88;;;9.51;85.31
18697;BME280;22617;43.690;27.956;2023-04-02T19:33:10;98198.41;;;9.55;85.38
18697;BME280;22617;43.690;27.956;2023-04-02T19:38:41;98200.19;;;9.52;85.25
18697;BME280;22617;43.690;27.956;2023-04-02T19:43:48;98202.03;;;9.44;84.81
18697;BME280;22617;43.690;27.956;2023-04-02T19:48:58;98210.78;;;9.35;84.38
18697;BME280;22617;43.690;27.956;2023-04-02T19:54:06;98210.78;;;9.35;84.27
18697;BME280;22617;43.690;27.956;2023-04-02T19:59:10;98210.88;;;9.29;84.35
18697;BME280;22617;43.690;27.956;2023-04-02T20:04:19;98205.94;;;9.06;83.97
18697;BME280;22617;43.690;27.956;2023-04-02T20:09:24;98198.97;;;9.08;84.79
18697;BME280;22617;43.690;27.956;2023-04-02T20:14:28;98205.00;;;9.13;85.25
18697;BME280;22617;43.690;27.956;2023-04-02T20:19:31;98204.03;;;9.22;85.27
18697;BME280;22617;43.690;27.956;2023-04-02T20:24:37;98208.41;;;9.20;84.87
18697;BME280;22617;43.690;27.956;2023-04-02T20:29:41;98202.28;;;9.24;84.95
18697;BME280;22617;43.690;27.956;2023-04-02T20:34:45;98199.69;;;9.24;85.11
18697;BME280;22617;43.690;27.956;2023-04-02T20:39:50;98203.25;;;9.15;84.94
18697;BME280;22617;43.690;27.956;2023-04-02T20:44:54;98202.28;;;9.24;84.50
18697;BME280;22617;43.690;27.956;2023-04-02T20:49:57;98199.94;;;9.01;84.41
18697;BME280;22617;43.690;27.956;2023-04-02T20:55:03;98200.72;;;9.08;85.06
18697;BME280;22617;43.690;27.956;2023-04-02T21:00:08;98204.38;;;8.90;85.22
18697;BME280;22617;43.690;27.956;2023-04-02T21:05:13;98211.25;;;8.96;85.74
18697;BME280;22617;43.690;27.956;2023-04-02T21:10:18;98219.88;;;9.01;85.40
18697;BME280;22617;43.690;27.956;2023-04-02T21:15:22;98227.56;;;9.08;84.56
18697;BME280;22617;43.690;27.956;2023-04-02T21:20:25;98215.53;;;8.98;85.57
18697;BME280;22617;43.690;27.956;2023-04-02T21:25:30;98222.47;;;8.99;86.08
18697;BME280;22617;43.690;27.956;2023-04-02T21:30:34;98222.47;;;8.99;85.25
18697;BME280;22617;43.690;27.956;2023-04-02T21:35:37;98219.97;;;8.89;85.35
18697;BME280;22617;43.690;27.956;2023-04-02T21:40:42;98228.56;;;8.97;85.58
18697;BME280;22617;43.690;27.956;2023-04-02T21:45:45;98234.75;;;8.84;85.15
18697;BME280;22617;43.690;27.956;2023-04-02T21:50:49;98239.84;;;8.94;85.49
18697;BME280;22617;43.690;27.956;2023-04-02T21:56:00;98236.28;;;9.06;84.62
18697;BME280;22617;43.690;27.956;2023-04-02T22:01:04;98224.22;;;8.97;85.34
18697;BME280;22617;43.690;27.956;2023-04-02T22:06:22;98227.69;;;8.98;85.81
18697;BME280;22617;43.690;27.956;2023-04-02T22:11:29;98218.13;;;9.00;84.84
18697;BME280;22617;43.690;27.956;2023-04-02T22:16:34;98215.75;;;8.80;84.86
18697;BME280;22617;43.690;27.956;2023-04-02T22:21:38;98214.03;;;8.78;85.67
18697;BME280;22617;43.690;27.956;2023-04-02T22:26:44;98227.91;;;8.77;85.44
18697;BME280;22617;43.690;27.956;2023-04-02T22:31:47;98215.78;;;8.74;85.78
18697;BME280;22617;43.690;27.956;2023-04-02T22:36:51;98209.81;;;8.67;85.52
18697;BME280;22617;43.690;27.956;2023-04-02T22:41:56;98202.88;;;8.66;85.33
18697;BME280;22617;43.690;27.956;2023-04-02T22:46:59;98198.59;;;8.62;85.24
18697;BME280;22617;43.690;27.956;2023-04-02T22:52:03;98196.00;;;8.59;84.87
18697;BME280;22617;43.690;27.956;2023-04-02T22:57:08;98206.44;;;8.56;85.65
18697;BME280;22617;43.690;27.956;2023-04-02T23:02:12;98215.22;;;8.43;85.17
18697;BME280;22617;43.690;27.956;2023-04-02T23:07:16;98209.16;;;8.43;84.59
18697;BME280;22617;43.690;27.956;2023-04-02T23:12:21;98211.13;;;8.09;84.93
18697;BME280;22617;43.690;27.956;2023-04-02T23:17:24;98210.28;;;8.05;85.14
18697;BME280;22617;43.690;27.956;2023-04-02T23:22:28;98198.34;;;7.75;83.34
18697;BME280;22617;43.690;27.956;2023-04-02T23:27:33;98188.09;;;7.54;84.35
18697;BME280;22617;43.690;27.956;2023-04-02T23:32:36;98188.13;;;7.51;85.94
18697;BME280;22617;43.690;27.956;2023-04-02T23:37:40;98183.75;;;7.61;86.21
18697;BME280;22617;43.690;27.956;2023-04-02T23:42:45;98181.16;;;7.59;85.68
18697;BME280;22617;43.690;27.956;2023-04-02T23:47:49;98190.53;;;7.83;85.49
18697;BME280;22617;43.690;27.956;2023-04-02T23:52:52;98189.81;;;7.57;84.80
18697;BME280;22617;43.690;27.956;2023-04-02T23:57:57;98185.47;;;7.60;85.29
